首页
METAR-TAF:

METAR-TAF

机场 :

庫拉索國際機場

库拉索, 荷属安的列斯

纬度: 12-12N, 经度: 068-58W, 海拔: 9米

当前天气观测

该预报发布于29分钟前的01:00 UTC
风速13节,风向
温度 28°C
湿度 74%
气压 1013 hPa
能见度10公里或以上
1500米以下无云,无积雨云

METAR: TNCC 310100Z 10013KT CAVOK 28/23 Q1013 NOSIG

时间: 21:29 (01:29 UTC)

预报

该预报发布于2小时和28分钟前的23:01 UTC
预报有效从31日的 00点(UTC)到 31日的 24点(UTC)
风速13节,风向
能见度10公里或以上
少量云层高于1800英尺
短暂存在
从 31日的 12点(UTC)到 31日的 24点(UTC)
多云层高于1400英尺

TAF: TNCC 302301Z 3100/3124 10013KT 9999 FEW018 TEMPO 3112/3124 BKN014

超过4000个机场的气象观测和天气预报(METAR&TAF报告)。

可查询的气象台以黄色和红色小点在地图上表示。

将鼠标移到小点上方,可查看气象台名称。

然后点击查看天气观测和预报。

如需切换地图:点击带黑十字的绿色按钮放大地图;点击带横线的绿色按钮缩小地图;或者点击绿色箭头查看邻近地区的地图。


METAR-TAF: